createdAt,value
2018-06-28T00:03:26.829Z,1001.26
2018-06-28T00:04:26.997Z,1001.26
2018-06-28T00:05:27.174Z,1001.24
2018-06-28T00:06:27.338Z,1001.29
2018-06-28T00:07:27.506Z,1001.29
2018-06-28T00:08:27.675Z,1001.28
2018-06-28T00:09:27.841Z,1001.29
2018-06-28T00:10:28.011Z,1001.31
2018-06-28T00:11:28.176Z,1001.31
2018-06-28T00:12:28.346Z,1001.33
2018-06-28T00:13:28.510Z,1001.25
2018-06-28T00:14:28.680Z,1001.25
2018-06-28T00:15:28.845Z,1001.26
2018-06-28T00:16:29.019Z,1001.27
2018-06-28T00:17:29.185Z,1001.26
2018-06-28T01:49:21.962Z,1001.04
2018-06-28T01:50:22.003Z,1001.06
2018-06-28T01:51:21.861Z,1001.03
2018-06-28T01:52:22.018Z,1001.02
2018-06-28T01:53:22.185Z,1001.04
2018-06-28T01:54:22.352Z,1001.03
2018-06-28T01:55:22.520Z,1001.08
2018-06-28T01:56:22.686Z,1001.15
2018-06-28T01:57:22.850Z,1001.03
2018-06-28T01:58:23.016Z,1001.06
2018-06-28T01:59:23.184Z,1001.04
2018-06-28T02:00:23.349Z,1001.06
2018-06-28T02:01:23.515Z,1001.06
2018-06-28T02:02:23.682Z,1001.08
2018-06-28T02:03:23.835Z,1001.08
2018-06-28T02:06:06.114Z,1001.09
2018-06-28T02:07:06.283Z,1001.09
2018-06-28T02:08:06.447Z,1001.08
2018-06-28T02:09:06.617Z,1000.99
2018-06-28T02:10:06.783Z,1001.05
2018-06-28T02:11:06.947Z,1001.03
2018-06-28T02:12:07.114Z,1001.03
2018-06-28T02:13:07.278Z,1001.04
2018-06-28T02:14:07.446Z,1001.03
2018-06-28T02:15:07.613Z,1001.04
2018-06-28T02:16:07.779Z,1001.00
2018-06-28T02:17:07.945Z,1001.03
2018-06-28T02:18:08.115Z,1001.03
2018-06-28T02:19:08.279Z,1001.02
2018-06-28T02:20:08.448Z,1001.07
2018-06-28T02:22:51.015Z,1001.05
2018-06-28T02:23:51.181Z,1001.06
2018-06-28T02:24:51.347Z,1001.10
2018-06-28T02:25:51.513Z,1001.08
2018-06-28T02:26:51.685Z,1001.09
2018-06-28T02:28:12.843Z,1001.10
2018-06-28T02:28:51.996Z,1001.12
2018-06-28T02:29:52.163Z,1001.11
2018-06-28T02:30:52.331Z,1001.11
2018-06-28T02:31:52.491Z,1001.11
2018-06-28T02:32:52.658Z,1001.14
2018-06-28T02:33:52.821Z,1001.15
2018-06-28T02:34:52.991Z,1001.12
2018-06-28T02:35:53.155Z,1001.11
2018-06-28T02:36:53.323Z,1001.12
2018-06-28T02:39:35.879Z,1001.10
2018-06-28T02:40:36.055Z,1001.08
2018-06-28T02:41:36.222Z,1001.08
2018-06-28T02:42:36.390Z,1001.06
2018-06-28T02:43:36.559Z,1001.06
2018-06-28T02:44:36.724Z,1001.03
2018-06-28T02:45:36.889Z,1001.02
2018-06-28T02:46:37.055Z,1001.00
2018-06-28T02:47:37.219Z,1000.96
2018-06-28T02:48:37.385Z,1000.94
2018-06-28T02:49:37.550Z,1000.95
2018-06-28T02:50:37.714Z,1000.97
2018-06-28T02:51:37.889Z,1000.96
2018-06-28T02:52:38.054Z,1000.93
2018-06-28T02:53:38.217Z,1000.98
2018-06-28T02:56:20.782Z,1000.87
2018-06-28T02:57:20.947Z,1000.86
2018-06-28T02:58:21.114Z,1000.86
2018-06-28T02:59:21.284Z,1000.86
2018-06-28T03:00:21.444Z,1000.86
2018-06-28T03:01:21.613Z,1000.84
2018-06-28T03:02:21.777Z,1000.84
2018-06-28T03:03:21.947Z,1000.89
2018-06-28T03:04:22.115Z,1000.82
2018-06-28T03:05:22.280Z,1000.85
2018-06-28T03:06:22.459Z,1000.86
2018-06-28T03:07:22.611Z,1000.85
2018-06-28T03:08:22.777Z,1000.87
2018-06-28T03:09:22.944Z,1000.85
2018-06-28T03:10:23.110Z,1000.84
2018-06-28T03:13:05.672Z,1000.81
2018-06-28T03:14:05.843Z,1000.87
2018-06-28T03:15:06.010Z,1000.89
2018-06-28T03:16:06.179Z,1000.96
2018-06-28T03:17:06.339Z,1000.96
2018-06-28T03:18:06.507Z,1000.97
2018-06-28T03:19:06.673Z,1000.94
2018-06-28T03:20:06.839Z,1000.97
2018-06-28T03:21:07.004Z,1000.94
2018-06-28T03:22:07.182Z,1000.98
2018-06-28T03:23:07.337Z,1000.96
2018-06-28T03:24:07.507Z,1001.01
2018-06-28T03:25:07.672Z,1000.99
2018-06-28T03:26:07.837Z,1001.04
2018-06-28T03:27:08.008Z,1001.01
2018-06-28T03:31:18.913Z,1000.90
2018-06-28T03:32:18.703Z,1000.93
2018-06-28T03:33:18.868Z,1000.91
2018-06-28T03:34:19.039Z,1000.96
2018-06-28T03:35:19.204Z,1000.99
2018-06-28T03:36:19.368Z,1001.01
2018-06-28T03:37:19.540Z,1000.99
2018-06-28T03:38:19.705Z,1001.01
2018-06-28T03:39:19.872Z,1001.00
2018-06-28T03:40:20.037Z,1001.04
2018-06-28T03:41:20.204Z,1000.97
2018-06-28T03:42:20.374Z,1001.04
2018-06-28T03:43:20.543Z,1001.10
2018-06-28T03:44:20.706Z,1001.12
2018-06-28T03:45:20.872Z,1001.13
2018-06-28T03:48:03.142Z,1001.16
2018-06-28T03:49:03.309Z,1001.20
2018-06-28T03:50:03.478Z,1001.16
2018-06-28T03:51:03.642Z,1001.18
2018-06-28T03:52:03.810Z,1001.18
2018-06-28T03:53:03.993Z,1001.14
2018-06-28T03:54:04.159Z,1001.12
2018-06-28T03:55:04.326Z,1001.16
2018-06-28T03:56:04.491Z,1001.13
2018-06-28T03:57:04.651Z,1001.10
2018-06-28T03:59:37.228Z,1001.12
2018-06-28T04:00:37.394Z,1001.12
2018-06-28T04:01:37.562Z,1001.12
2018-06-28T04:02:37.728Z,1001.12
2018-06-28T04:03:37.888Z,1001.15
2018-06-28T04:04:38.062Z,1001.13
2018-06-28T04:05:38.223Z,1001.13
2018-06-28T04:06:38.400Z,1001.14
2018-06-28T04:07:38.558Z,1001.12
2018-06-28T04:08:38.723Z,1001.17
2018-06-28T04:11:11.364Z,1001.19
2018-06-28T04:12:11.506Z,1001.18
2018-06-28T04:13:11.673Z,1001.14
2018-06-28T04:14:11.849Z,1001.10
2018-06-28T04:15:12.002Z,1001.11
2018-06-28T04:16:12.170Z,1001.14
2018-06-28T04:17:12.343Z,1001.08
2018-06-28T04:18:12.501Z,1001.15
2018-06-28T04:19:12.671Z,1001.12
2018-06-28T04:20:12.834Z,1001.13
2018-06-28T04:22:55.389Z,1001.08
2018-06-28T04:23:55.556Z,1001.08
2018-06-28T04:24:55.722Z,1001.07
2018-06-28T04:25:55.892Z,1001.03
2018-06-28T04:26:56.054Z,1001.05
2018-06-28T04:27:56.218Z,1001.03
2018-06-28T04:28:56.385Z,1001.03
2018-06-28T04:29:56.553Z,1001.05
2018-06-28T04:30:56.718Z,1001.04
2018-06-28T04:31:56.881Z,1001.04
2018-06-28T04:37:37.894Z,1001.03
2018-06-28T04:38:37.691Z,1001.06
2018-06-28T04:39:37.858Z,1001.00
2018-06-28T04:40:38.024Z,1000.98
2018-06-28T04:41:38.193Z,1000.98
2018-06-28T04:42:38.359Z,1000.94
2018-06-28T04:43:38.524Z,1000.92
2018-06-28T04:44:38.691Z,1000.88
2018-06-28T04:45:38.856Z,1000.85
2018-06-28T04:46:39.022Z,1000.86
2018-06-28T04:49:21.283Z,1000.87
2018-06-28T04:50:21.449Z,1000.85
2018-06-28T04:51:21.614Z,1000.83
2018-06-28T04:52:21.775Z,1000.90
2018-06-28T04:53:21.941Z,1000.90
2018-06-28T04:54:22.113Z,1000.88
2018-06-28T04:55:22.279Z,1000.94
2018-06-28T04:56:22.443Z,1000.91
2018-06-28T04:57:22.609Z,1000.92
2018-06-28T04:58:22.779Z,1000.95
2018-06-28T05:03:23.752Z,1000.92
2018-06-28T05:04:23.534Z,1000.86
2018-06-28T05:05:23.711Z,1000.86
2018-06-28T05:06:23.880Z,1000.86
2018-06-28T05:07:24.043Z,1000.89
2018-06-28T05:08:24.209Z,1000.86
2018-06-28T05:09:24.379Z,1000.87
2018-06-28T05:10:24.542Z,1000.88
2018-06-28T05:11:24.706Z,1000.85
2018-06-28T05:12:24.871Z,1000.90
2018-06-28T05:15:07.424Z,1000.90
2018-06-28T05:16:07.590Z,1000.89
2018-06-28T05:17:07.804Z,1000.87
2018-06-28T05:18:07.931Z,1000.89
2018-06-28T05:19:08.100Z,1000.91
2018-06-28T05:20:08.263Z,1000.91
2018-06-28T05:21:08.426Z,1000.88
2018-06-28T05:22:08.594Z,1000.88
2018-06-28T05:23:08.760Z,1000.86
2018-06-28T05:24:08.924Z,1000.83
2018-06-28T05:25:09.091Z,1000.83
2018-06-28T05:26:09.261Z,1000.80
2018-06-28T05:27:09.427Z,1000.80
2018-06-28T05:28:09.590Z,1000.78
2018-06-28T05:29:09.763Z,1000.80
2018-06-28T05:31:52.310Z,1000.83
2018-06-28T05:32:53.055Z,1000.77
2018-06-28T05:33:52.595Z,1000.79
2018-06-28T05:34:52.800Z,1000.84
2018-06-28T05:35:52.938Z,1000.88
2018-06-28T05:36:53.101Z,1000.85
2018-06-28T05:37:53.271Z,1000.87
2018-06-28T05:38:53.435Z,1000.84
2018-06-28T05:39:53.601Z,1000.86
2018-06-28T05:40:53.768Z,1000.86
2018-06-28T05:43:36.344Z,1000.94
2018-06-28T05:44:36.514Z,1000.91
2018-06-28T05:45:36.685Z,1000.89
2018-06-28T05:46:36.850Z,1000.94
2018-06-28T05:47:37.022Z,1000.87
2018-06-28T05:48:37.184Z,1000.85
2018-06-28T05:49:37.381Z,1000.86
2018-06-28T05:50:37.513Z,1000.88
2018-06-28T05:51:37.677Z,1000.86
2018-06-28T05:52:37.842Z,1000.88
2018-06-28T05:55:20.115Z,1000.77
2018-06-28T05:56:20.287Z,1000.81
2018-06-28T05:57:20.451Z,1000.79
2018-06-28T05:58:28.075Z,1000.73
2018-06-28T05:59:20.736Z,1000.76
2018-06-28T06:00:21.684Z,1000.74
2018-06-28T06:01:21.745Z,1000.73
2018-06-28T06:02:21.226Z,1000.78
2018-06-28T06:03:21.388Z,1000.83
2018-06-28T06:04:21.543Z,1000.78
2018-06-28T06:05:21.710Z,1000.77
2018-06-28T06:06:21.880Z,1000.83
2018-06-28T06:07:22.065Z,1000.81
2018-06-28T06:08:22.228Z,1000.84
2018-06-28T06:09:22.395Z,1000.81
2018-06-28T06:10:22.599Z,1000.80
2018-06-28T06:11:22.834Z,1000.78
2018-06-28T06:12:22.918Z,1000.84
2018-06-28T06:14:55.215Z,1000.80
2018-06-28T06:15:55.362Z,1000.82
2018-06-28T06:16:55.530Z,1000.79
2018-06-28T06:17:55.696Z,1000.79
2018-06-28T06:18:55.865Z,1000.80
2018-06-28T06:19:56.032Z,1000.78
2018-06-28T06:20:56.200Z,1000.78
2018-06-28T06:21:56.382Z,1000.73
2018-06-28T06:22:56.550Z,1000.77
2018-06-28T06:23:56.720Z,1000.79
2018-06-28T06:24:56.884Z,1000.78
2018-06-28T06:25:57.050Z,1000.81
2018-06-28T06:26:57.215Z,1000.77
2018-06-28T06:27:57.387Z,1000.75
2018-06-28T06:28:57.555Z,1000.74
2018-06-28T06:31:30.109Z,1000.69
2018-06-28T06:32:30.278Z,1000.68
2018-06-28T06:33:30.445Z,1000.65
2018-06-28T06:34:31.355Z,1000.66
2018-06-28T06:35:30.770Z,1000.62
2018-06-28T06:36:30.963Z,1000.59
2018-06-28T06:37:31.108Z,1000.54
2018-06-28T06:38:31.272Z,1000.49
2018-06-28T06:39:31.441Z,1000.51
2018-06-28T06:40:31.609Z,1000.49
2018-06-28T06:41:31.774Z,1000.53
2018-06-28T06:42:31.940Z,1000.46
2018-06-28T06:43:32.108Z,1000.49
2018-06-28T06:44:32.282Z,1000.52
2018-06-28T06:45:34.024Z,1000.48
2018-06-28T06:48:15.004Z,1000.51
2018-06-28T06:49:15.174Z,1000.56
2018-06-28T06:50:15.352Z,1000.53
2018-06-28T06:51:15.519Z,1000.53
2018-06-28T06:52:15.682Z,1000.54
2018-06-28T06:53:15.849Z,1000.50
2018-06-28T06:54:16.009Z,1000.48
2018-06-28T06:55:16.175Z,1000.50
2018-06-28T06:56:16.351Z,1000.50
2018-06-28T06:57:17.276Z,1000.45
2018-06-28T06:58:16.685Z,1000.46
2018-06-28T06:59:16.850Z,1000.48
2018-06-28T07:00:17.028Z,1000.53
2018-06-28T07:01:17.198Z,1000.56
2018-06-28T07:02:17.369Z,1000.51
2018-06-28T07:05:00.163Z,1000.48
2018-06-28T07:05:59.838Z,1000.51
2018-06-28T07:07:00.087Z,1000.50
2018-06-28T07:08:00.255Z,1000.51
2018-06-28T07:09:00.431Z,1000.53
2018-06-28T07:10:00.602Z,1000.57
2018-06-28T07:11:00.770Z,1000.51
2018-06-28T07:12:09.287Z,1000.52
2018-06-28T07:13:01.096Z,1000.47
2018-06-28T07:14:01.262Z,1000.49
2018-06-28T07:15:01.512Z,1000.48
2018-06-28T07:16:01.637Z,1000.42
2018-06-28T07:17:02.716Z,1000.44
2018-06-28T07:18:01.885Z,1000.38
2018-06-28T07:19:02.056Z,1000.30
2018-06-28T07:20:02.226Z,1000.30
2018-06-28T07:21:02.387Z,1000.33
2018-06-28T07:22:02.569Z,1000.34
2018-06-28T07:23:11.663Z,1000.28
2018-06-28T07:24:02.950Z,1000.27
2018-06-28T07:25:03.117Z,1000.23
2018-06-28T07:26:04.205Z,1000.28
2018-06-28T07:27:03.405Z,1000.26
2018-06-28T07:28:05.200Z,1000.27
2018-06-28T07:29:03.751Z,1000.25
2018-06-28T07:30:03.926Z,1000.29
2018-06-28T07:31:04.719Z,1000.20
2018-06-28T07:32:05.222Z,1000.21
2018-06-28T07:33:04.434Z,1000.26
2018-06-28T07:34:04.591Z,1000.21
2018-06-28T07:35:04.725Z,1000.23
2018-06-28T07:36:04.883Z,1000.23
2018-06-28T07:37:05.432Z,1000.24
2018-06-28T07:38:05.211Z,1000.24
2018-06-28T07:40:38.781Z,1000.21
2018-06-28T07:41:38.951Z,1000.18
2018-06-28T07:42:40.098Z,1000.14
2018-06-28T07:43:39.352Z,1000.12
2018-06-28T07:44:39.529Z,1000.14
2018-06-28T07:45:39.659Z,1000.12
2018-06-28T07:46:39.825Z,1000.13
2018-06-28T07:47:40.008Z,1000.12
2018-06-28T07:48:40.186Z,1000.14
2018-06-28T07:49:40.358Z,1000.16
2018-06-28T07:50:40.531Z,1000.11
2018-06-28T07:51:40.701Z,1000.13
2018-06-28T07:52:40.866Z,1000.11
2018-06-28T07:53:41.784Z,1000.09
2018-06-28T07:54:41.245Z,1000.11
2018-06-28T07:57:13.839Z,1000.05
2018-06-28T07:58:14.012Z,1000.02
2018-06-28T07:59:14.167Z,1000.06
2018-06-28T08:00:14.524Z,999.97
2018-06-28T08:01:22.769Z,999.97
2018-06-28T08:02:14.800Z,999.95
2018-06-28T08:03:15.064Z,999.96
2018-06-28T08:04:15.309Z,999.88
2018-06-28T08:05:15.365Z,999.93
2018-06-28T08:06:15.406Z,999.86
2018-06-28T08:07:15.581Z,999.87
2018-06-28T08:08:15.750Z,999.86
2018-06-28T08:09:15.922Z,999.82
2018-06-28T08:10:16.186Z,999.83
2018-06-28T08:11:16.228Z,999.86
2018-06-28T08:13:59.503Z,999.88
2018-06-28T08:14:59.669Z,999.88
2018-06-28T08:18:49.481Z,999.83
2018-06-28T08:19:49.630Z,999.83
2018-06-28T08:23:10.656Z,999.80
2018-06-28T08:30:05.837Z,999.81
2018-06-28T08:31:06.017Z,999.85
2018-06-28T08:32:06.181Z,999.80
2018-06-28T08:33:06.346Z,999.88
2018-06-28T08:34:06.506Z,999.80
2018-06-28T08:35:06.674Z,999.84
2018-06-28T08:36:06.876Z,999.81
2018-06-28T08:37:07.090Z,999.80
2018-06-28T08:38:07.218Z,999.82
2018-06-28T08:39:07.380Z,999.84
2018-06-28T08:40:07.551Z,999.90
2018-06-28T08:41:07.723Z,999.81
2018-06-28T08:42:07.901Z,999.88
2018-06-28T08:43:08.113Z,999.85
2018-06-28T08:44:08.240Z,999.88
2018-06-28T08:46:41.336Z,999.81
2018-06-28T08:47:41.508Z,999.82
2018-06-28T08:48:41.681Z,999.79
2018-06-28T08:49:41.856Z,999.80
2018-06-28T08:50:42.028Z,999.85
2018-06-28T08:51:42.200Z,999.89
2018-06-28T08:52:42.373Z,999.80
2018-06-28T08:53:42.541Z,999.81
2018-06-28T08:54:42.708Z,999.81
2018-06-28T08:55:42.878Z,999.81
2018-06-28T08:56:43.047Z,999.83
2018-06-28T08:57:43.282Z,999.85
2018-06-28T08:58:43.406Z,999.82
2018-06-28T08:59:43.575Z,999.82
2018-06-28T09:00:43.749Z,999.82
2018-06-28T09:03:26.328Z,999.80
2018-06-28T09:04:35.449Z,999.77
2018-06-28T09:05:26.613Z,999.79
2018-06-28T09:06:26.785Z,999.76
2018-06-28T09:07:26.956Z,999.77
2018-06-28T09:08:27.125Z,999.75
2018-06-28T09:09:27.301Z,999.71
2018-06-28T09:10:28.078Z,999.71
2018-06-28T09:11:27.621Z,999.71
2018-06-28T09:12:27.792Z,999.74
2018-06-28T09:13:27.960Z,999.70
2018-06-28T09:14:28.190Z,999.67
2018-06-28T09:17:01.362Z,999.66
2018-06-28T09:18:00.795Z,999.63
2018-06-28T09:19:21.468Z,999.63
2018-06-28T09:20:01.128Z,999.61
2018-06-28T09:21:01.294Z,999.57
2018-06-28T09:22:01.476Z,999.59
2018-06-28T09:23:09.299Z,999.58
2018-06-28T09:24:09.290Z,999.53
2018-06-28T09:25:02.873Z,999.60
2018-06-28T09:26:03.943Z,999.60
2018-06-28T09:27:02.383Z,999.63
2018-06-28T09:28:02.546Z,999.68
2018-06-28T09:29:02.718Z,999.64
2018-06-28T09:30:02.882Z,999.54
2018-06-28T09:31:03.053Z,999.55
2018-06-28T09:32:03.223Z,999.57
2018-06-28T09:33:03.396Z,999.56
2018-06-28T09:34:03.563Z,999.47
2018-06-28T09:35:03.741Z,999.52
2018-06-28T09:36:03.946Z,999.48
2018-06-28T09:37:04.164Z,999.43
2018-06-28T09:38:12.290Z,999.49
2018-06-28T09:39:04.849Z,999.49
2018-06-28T09:40:04.604Z,999.43
2018-06-28T09:41:04.770Z,999.43
2018-06-28T09:42:04.937Z,999.40
2018-06-28T09:43:05.108Z,999.40
2018-06-28T09:44:05.288Z,999.40
2018-06-28T09:45:05.451Z,999.41
2018-06-28T09:46:05.641Z,999.35
2018-06-28T10:00:38.677Z,999.06
2018-06-28T10:01:46.281Z,999.08
2018-06-28T10:02:38.819Z,999.08
2018-06-28T10:03:39.014Z,998.95
2018-06-28T10:04:39.680Z,999.01
2018-06-28T10:05:39.345Z,998.96
2018-06-28T10:06:39.518Z,998.97
2018-06-28T10:07:39.672Z,998.91
2018-06-28T10:08:39.850Z,998.91
2018-06-28T10:09:40.020Z,998.94
2018-06-28T10:10:40.194Z,998.92
2018-06-28T10:11:40.370Z,998.90
2018-06-28T10:12:40.543Z,998.92
2018-06-28T10:13:40.719Z,998.91
2018-06-28T10:14:40.937Z,998.89
2018-06-28T10:15:41.680Z,998.85
2018-06-28T10:18:13.768Z,998.84
2018-06-28T10:19:13.905Z,998.85
2018-06-28T10:20:14.096Z,998.81
2018-06-28T10:21:14.219Z,998.86
2018-06-28T10:22:14.393Z,998.81
2018-06-28T10:23:14.556Z,998.87
2018-06-28T10:24:14.773Z,998.86
2018-06-28T10:25:14.902Z,998.77
2018-06-28T10:26:15.077Z,998.85
2018-06-28T10:27:15.249Z,998.72
2018-06-28T10:28:15.418Z,998.67
2018-06-28T10:29:15.594Z,998.72
2018-06-28T10:30:15.761Z,998.68
2018-06-28T10:31:15.946Z,998.76
2018-06-28T10:32:16.114Z,998.77
2018-06-28T10:34:48.415Z,998.79
2018-06-28T10:35:48.575Z,998.90
2018-06-28T10:36:48.744Z,998.82
2018-06-28T10:37:48.914Z,998.84
2018-06-28T10:38:49.086Z,998.80
2018-06-28T10:39:49.258Z,998.79
2018-06-28T10:40:49.430Z,998.70
2018-06-28T10:41:49.599Z,998.76
2018-06-28T10:42:49.768Z,998.70
2018-06-28T10:43:57.097Z,998.77
2018-06-28T10:44:50.138Z,998.72
2018-06-28T10:45:50.293Z,998.75
2018-06-28T10:46:50.482Z,998.68
2018-06-28T10:47:58.637Z,998.69
2018-06-28T10:48:51.461Z,998.62
2018-06-28T10:49:51.011Z,998.65
2018-06-28T10:50:51.211Z,998.60
2018-06-28T10:51:51.406Z,998.65
2018-06-28T10:52:51.587Z,998.68
2018-06-28T10:53:51.784Z,998.62
2018-06-28T10:54:52.058Z,998.60
2018-06-28T10:55:52.116Z,998.53
2018-06-28T10:56:52.302Z,998.60
2018-06-28T10:57:52.497Z,998.55
2018-06-28T10:58:52.729Z,998.67
2018-06-28T10:59:53.153Z,998.61
2018-06-28T11:00:52.979Z,998.57
2018-06-28T11:01:53.176Z,998.48
2018-06-28T11:02:53.349Z,998.56
2018-06-28T11:05:26.838Z,998.53
2018-06-28T11:06:26.884Z,998.51
2018-06-28T11:07:27.142Z,998.61
2018-06-28T11:08:27.293Z,998.56
2018-06-28T11:09:34.990Z,998.54
2018-06-28T11:10:27.638Z,998.48
2018-06-28T11:11:27.787Z,998.57
2018-06-28T11:12:27.964Z,998.56
2018-06-28T11:13:28.145Z,998.57
2018-06-28T11:14:28.320Z,998.50
2018-06-28T11:15:28.495Z,998.51
2018-06-28T11:16:28.700Z,998.53
2018-06-28T11:17:28.884Z,998.48
2018-06-28T11:18:29.076Z,998.44
2018-06-28T11:19:29.265Z,998.44
2018-06-28T11:20:29.812Z,998.50
2018-06-28T11:21:30.238Z,998.46
2018-06-28T11:22:30.657Z,998.49
2018-06-28T11:23:37.925Z,998.42
2018-06-28T11:24:30.169Z,998.38
2018-06-28T11:25:31.555Z,998.37
2018-06-28T11:26:30.726Z,998.34
2018-06-28T11:27:30.612Z,998.28
2018-06-28T11:28:31.867Z,998.25
2018-06-28T11:29:31.094Z,998.25
2018-06-28T11:30:31.712Z,998.29
2018-06-28T11:31:31.258Z,998.31
2018-06-28T11:32:39.395Z,998.32
2018-06-28T11:33:31.564Z,998.29
2018-06-28T11:34:31.739Z,998.26
2018-06-28T11:35:31.933Z,998.23
2018-06-28T11:36:32.064Z,998.20
2018-06-28T11:37:32.276Z,998.17
2018-06-28T11:38:32.459Z,998.15
2018-06-28T11:39:34.260Z,998.12
2018-06-28T11:40:32.776Z,998.13
2018-06-28T11:41:32.944Z,998.09
2018-06-28T11:42:33.680Z,998.08
2018-06-28T11:43:33.285Z,998.10
2018-06-28T11:44:33.450Z,998.11
2018-06-28T11:45:33.632Z,998.01
2018-06-28T11:46:33.798Z,998.06
2018-06-28T11:49:16.379Z,997.98
2018-06-28T11:50:16.191Z,997.93
2018-06-28T11:51:17.107Z,997.92
2018-06-28T11:52:16.574Z,997.86
2018-06-28T11:53:16.700Z,997.91
2018-06-28T11:54:17.603Z,997.87
2018-06-28T11:55:17.607Z,997.84
2018-06-28T11:56:17.151Z,997.83
2018-06-28T11:57:19.101Z,997.78
2018-06-28T11:58:17.538Z,997.71
2018-06-28T11:59:17.722Z,997.69
2018-06-28T12:00:25.582Z,997.76
2018-06-28T12:01:18.100Z,997.60
2018-06-28T12:02:18.271Z,997.65
2018-06-28T12:03:18.453Z,997.66
2018-06-28T12:04:18.614Z,997.65
2018-06-28T12:05:18.838Z,997.67
2018-06-28T12:06:18.935Z,997.59
2018-06-28T12:07:19.649Z,997.58
2018-06-28T12:08:19.327Z,997.61
2018-06-28T12:09:19.501Z,997.66
2018-06-28T12:10:20.552Z,997.65
2018-06-28T12:13:02.045Z,997.58
2018-06-28T12:14:02.179Z,997.57
2018-06-28T12:15:02.348Z,997.55
2018-06-28T12:16:02.536Z,997.56
2018-06-28T12:17:02.763Z,997.54
2018-06-28T12:18:02.923Z,997.57
2018-06-28T12:19:03.091Z,997.58
2018-06-28T12:20:03.258Z,997.63
2018-06-28T12:21:03.427Z,997.57
2018-06-28T12:22:03.597Z,997.58
2018-06-28T12:23:04.532Z,997.59
2018-06-28T12:24:03.985Z,997.62
2018-06-28T12:25:04.165Z,997.57
2018-06-28T12:26:12.777Z,997.55
2018-06-28T12:27:04.442Z,997.58
2018-06-28T12:28:04.614Z,997.45
2018-06-28T12:29:04.791Z,997.45
2018-06-28T12:30:04.957Z,997.43
2018-06-28T12:31:13.437Z,997.40
2018-06-28T12:32:05.251Z,997.35
2018-06-28T12:33:07.048Z,997.32
2018-06-28T12:34:05.602Z,997.29
2018-06-28T12:35:05.764Z,997.34
2018-06-28T12:36:05.933Z,997.28
2018-06-28T12:37:07.049Z,997.32
2018-06-28T12:38:06.293Z,997.30
2018-06-28T12:39:06.368Z,997.34
2018-06-28T12:40:14.167Z,997.39
2018-06-28T12:41:06.782Z,997.34
2018-06-28T12:42:06.842Z,997.34
2018-06-28T12:43:07.014Z,997.28
2018-06-28T12:44:07.186Z,997.25
2018-06-28T12:45:07.359Z,997.27
2018-06-28T12:46:07.580Z,997.30
2018-06-28T12:47:07.698Z,997.26
2018-06-28T12:48:07.874Z,997.28
2018-06-28T12:49:08.044Z,997.35
2018-06-28T12:50:08.218Z,997.17
2018-06-28T12:51:08.373Z,997.02
2018-06-28T12:52:08.543Z,997.13
2018-06-28T12:53:08.724Z,997.16
2018-06-28T12:54:09.002Z,997.19
2018-06-28T12:56:51.246Z,997.20
2018-06-28T12:57:59.330Z,997.23
2018-06-28T12:58:51.644Z,997.23
2018-06-28T12:59:52.866Z,997.15
2018-06-28T13:00:51.987Z,997.13
2018-06-28T13:01:52.766Z,997.18
2018-06-28T13:02:53.302Z,997.12
2018-06-28T13:03:52.467Z,997.09
2018-06-28T13:04:53.256Z,997.21
2018-06-28T13:05:52.799Z,997.03
2018-06-28T13:06:56.364Z,997.04
2018-06-28T13:09:25.344Z,997.16
2018-06-28T13:10:25.392Z,997.02
2018-06-28T13:11:27.330Z,996.95
2018-06-28T13:12:25.755Z,997.04
2018-06-28T13:13:25.940Z,996.95
2018-06-28T13:14:26.092Z,996.99
2018-06-28T13:15:26.419Z,996.99
2018-06-28T13:16:33.840Z,997.02
2018-06-28T13:17:26.653Z,997.06
2018-06-28T13:18:28.354Z,997.06
2018-06-28T13:19:27.045Z,997.10
2018-06-28T13:20:27.916Z,997.02
2018-06-28T13:21:27.392Z,997.12
2018-06-28T13:22:27.564Z,996.97
2018-06-28T13:23:27.735Z,996.95
2018-06-28T13:26:40.158Z,996.96
2018-06-28T13:29:20.034Z,996.97
2018-06-28T13:30:20.198Z,996.99
2018-06-28T13:31:21.250Z,996.96
2018-06-28T13:32:23.230Z,996.94
2018-06-28T13:33:22.241Z,996.93
2018-06-28T13:34:20.783Z,996.97
2018-06-28T13:35:20.955Z,996.90
2018-06-28T13:36:21.135Z,996.96
2018-06-28T13:37:21.290Z,996.90
2018-06-28T13:38:21.473Z,996.92
2018-06-28T13:39:21.668Z,996.90
2018-06-28T13:40:36.811Z,996.90
2018-06-28T13:41:23.150Z,996.89
2018-06-28T13:42:22.347Z,996.95
2018-06-28T13:43:23.177Z,997.00
2018-06-28T13:44:30.274Z,996.96
2018-06-28T13:45:22.688Z,996.92
2018-06-28T13:47:54.964Z,996.81
2018-06-28T13:49:07.334Z,996.79
2018-06-28T13:49:55.356Z,996.75
2018-06-28T13:50:55.672Z,996.74
2018-06-28T13:51:55.696Z,996.69
2018-06-28T13:52:55.876Z,996.72
2018-06-28T13:53:56.054Z,996.71
2018-06-28T13:54:56.228Z,996.61
2018-06-28T13:59:34.779Z,996.50
2018-06-28T14:00:55.967Z,996.50
2018-06-28T14:01:35.118Z,996.45
2018-06-28T14:02:35.288Z,996.53
2018-06-28T14:03:42.620Z,996.49
2018-06-28T14:04:35.660Z,996.45
2018-06-28T14:05:35.833Z,996.49
2018-06-28T14:06:36.005Z,996.46
2018-06-28T14:07:36.175Z,996.44
2018-06-28T14:08:36.353Z,996.51
2018-06-28T14:09:43.692Z,996.48
2018-06-28T14:10:36.729Z,996.58
2018-06-28T14:11:36.904Z,996.51
2018-06-28T14:12:37.078Z,996.49
2018-06-28T14:13:37.255Z,996.41
2018-06-28T14:14:37.438Z,996.40
2018-06-28T14:15:37.606Z,996.50
2018-06-28T14:16:37.824Z,996.47
2018-06-28T14:17:37.975Z,996.46
2018-06-28T14:18:38.213Z,996.49
2018-06-28T14:19:38.333Z,996.48
2018-06-28T14:22:20.946Z,996.46
2018-06-28T14:23:21.076Z,996.47
2018-06-28T14:24:21.249Z,996.43
2018-06-28T14:25:21.440Z,996.45
2018-06-28T14:26:24.125Z,996.39
2018-06-28T14:27:21.790Z,996.41
2018-06-28T14:28:21.955Z,996.34
2018-06-28T14:29:22.167Z,996.41
2018-06-28T14:30:22.383Z,996.39
2018-06-28T14:31:30.037Z,996.43
2018-06-28T14:32:22.709Z,996.51
2018-06-28T14:33:22.878Z,996.40
2018-06-28T14:34:23.049Z,996.33
2018-06-28T14:35:24.143Z,996.32
2018-06-28T14:36:24.969Z,996.33
2018-06-28T14:37:23.643Z,996.26
2018-06-28T14:38:23.820Z,996.29
2018-06-28T14:39:24.041Z,996.24
2018-06-28T14:40:24.155Z,996.21
2018-06-28T14:41:25.151Z,996.11
2018-06-28T14:42:24.443Z,996.12
2018-06-28T14:43:24.612Z,996.19
2018-06-28T14:44:24.783Z,996.12
2018-06-28T14:45:24.953Z,996.08
2018-06-28T14:48:07.538Z,996.07
2018-06-28T14:49:07.711Z,996.10
2018-06-28T14:50:07.892Z,996.08
2018-06-28T14:51:08.767Z,996.11
2018-06-28T14:52:15.948Z,996.14
2018-06-28T14:53:08.406Z,996.13
2018-06-28T14:54:14.352Z,996.10
2018-06-28T14:55:14.306Z,996.18
2018-06-28T14:56:08.853Z,996.19
2018-06-28T14:57:09.023Z,996.14
2018-06-28T14:58:09.200Z,996.11
2018-06-28T14:59:09.375Z,996.10
2018-06-28T15:00:16.717Z,996.09
2018-06-28T15:01:09.756Z,996.03
2018-06-28T15:02:09.927Z,996.05
2018-06-28T15:03:10.092Z,996.06
2018-06-28T15:04:10.294Z,996.06
2018-06-28T15:05:10.436Z,996.04
2018-06-28T15:06:10.607Z,996.11
2018-06-28T15:07:11.314Z,996.04
2018-06-28T15:08:10.997Z,996.02
2018-06-28T15:09:11.165Z,996.05
2018-06-28T15:12:54.906Z,995.96
2018-06-28T15:13:55.639Z,995.92
2018-06-28T15:14:55.211Z,995.92
2018-06-28T15:15:55.388Z,995.87
2018-06-28T15:16:55.567Z,995.94
2018-06-28T15:17:57.632Z,995.83
2018-06-28T15:18:55.993Z,995.86
2018-06-28T15:19:56.102Z,995.80
2018-06-28T15:20:56.274Z,995.90
2018-06-28T15:21:56.446Z,995.89
2018-06-28T15:24:39.028Z,995.83
2018-06-28T15:25:39.492Z,995.78
2018-06-28T15:26:39.423Z,995.82
2018-06-28T15:27:39.600Z,995.82
2018-06-28T15:28:39.784Z,995.80
2018-06-28T15:29:39.942Z,995.84
2018-06-28T15:30:40.112Z,995.84
2018-06-28T15:31:40.275Z,995.87
2018-06-28T15:32:40.459Z,995.88
2018-06-28T15:33:40.624Z,995.83
2018-06-28T15:34:40.862Z,995.84
2018-06-28T15:35:41.015Z,995.83
2018-06-28T15:36:41.188Z,995.81
2018-06-28T15:37:41.360Z,995.82